sensor_id;sensor_type;location;lat;lon;timestamp;temperature;humidity
12452;DHT22;6291;48.924;12.204;2023-04-19T00:03:26;9.50;68.40
12452;DHT22;6291;48.924;12.204;2023-04-19T00:08:31;9.50;99.90
12452;DHT22;6291;48.924;12.204;2023-04-19T00:13:35;9.40;99.90
12452;DHT22;6291;48.924;12.204;2023-04-19T00:18:40;9.40;99.90
12452;DHT22;6291;48.924;12.204;2023-04-19T00:23:43;9.40;99.90
12452;DHT22;6291;48.924;12.204;2023-04-19T00:28:47;9.40;99.90
12452;DHT22;6291;48.924;12.204;2023-04-19T00:33:52;9.30;99.90
12452;DHT22;6291;48.924;12.204;2023-04-19T00:38:55;9.10;99.90
12452;DHT22;6291;48.924;12.204;2023-04-19T00:43:58;9.10;99.90
12452;DHT22;6291;48.924;12.204;2023-04-19T00:49:04;9.10;99.90
12452;DHT22;6291;48.924;12.204;2023-04-19T00:54:07;9.10;99.90
12452;DHT22;6291;48.924;12.204;2023-04-19T00:59:11;9.10;99.90
12452;DHT22;6291;48.924;12.204;2023-04-19T01:04:18;9.00;1.00
12452;DHT22;6291;48.924;12.204;2023-04-19T01:09:21;8.80;1.00
12452;DHT22;6291;48.924;12.204;2023-04-19T01:14:25;8.50;1.00
12452;DHT22;6291;48.924;12.204;2023-04-19T01:19:30;8.40;99.90
12452;DHT22;6291;48.924;12.204;2023-04-19T01:24:35;8.30;99.90
12452;DHT22;6291;48.924;12.204;2023-04-19T01:29:38;8.10;1.00
12452;DHT22;6291;48.924;12.204;2023-04-19T01:34:42;8.00;1.00
12452;DHT22;6291;48.924;12.204;2023-04-19T01:39:46;8.70;19.60
12452;DHT22;6291;48.924;12.204;2023-04-19T01:44:50;7.80;99.90
12452;DHT22;6291;48.924;12.204;2023-04-19T01:49:53;7.80;99.90
12452;DHT22;6291;48.924;12.204;2023-04-19T01:54:58;7.70;1.00
12452;DHT22;6291;48.924;12.204;2023-04-19T02:00:05;7.80;1.00
12452;DHT22;6291;48.924;12.204;2023-04-19T02:05:15;7.60;66.70
12452;DHT22;6291;48.924;12.204;2023-04-19T02:10:20;7.50;36.80
12452;DHT22;6291;48.924;12.204;2023-04-19T02:15:23;7.40;1.00
12452;DHT22;6291;48.924;12.204;2023-04-19T02:20:27;7.30;1.00
12452;DHT22;6291;48.924;12.204;2023-04-19T02:25:32;7.30;99.90
12452;DHT22;6291;48.924;12.204;2023-04-19T02:30:35;7.20;99.90
12452;DHT22;6291;48.924;12.204;2023-04-19T02:35:39;7.20;1.00
12452;DHT22;6291;48.924;12.204;2023-04-19T02:40:44;6.90;1.00
12452;DHT22;6291;48.924;12.204;2023-04-19T02:45:47;7.00;1.00
12452;DHT22;6291;48.924;12.204;2023-04-19T02:50:50;7.00;1.00
12452;DHT22;6291;48.924;12.204;2023-04-19T02:55:56;6.90;50.90
12452;DHT22;6291;48.924;12.204;2023-04-19T03:01:00;6.90;99.90
12452;DHT22;6291;48.924;12.204;2023-04-19T03:06:03;6.90;99.90
12452;DHT22;6291;48.924;12.204;2023-04-19T03:11:10;6.80;1.00
12452;DHT22;6291;48.924;12.204;2023-04-19T03:16:13;6.80;1.00
12452;DHT22;6291;48.924;12.204;2023-04-19T03:21:18;6.80;99.90
12452;DHT22;6291;48.924;12.204;2023-04-19T03:26:28;6.70;1.00
12452;DHT22;6291;48.924;12.204;2023-04-19T03:31:32;7.20;99.90
12452;DHT22;6291;48.924;12.204;2023-04-19T03:36:35;6.80;98.70
12452;DHT22;6291;48.924;12.204;2023-04-19T03:41:40;6.80;99.90
12452;DHT22;6291;48.924;12.204;2023-04-19T03:46:54;6.80;1.00
12452;DHT22;6291;48.924;12.204;2023-04-19T03:52:02;6.70;43.40
12452;DHT22;6291;48.924;12.204;2023-04-19T03:57:11;6.70;99.90
12452;DHT22;6291;48.924;12.204;2023-04-19T04:02:16;6.60;99.90
12452;DHT22;6291;48.924;12.204;2023-04-19T04:07:20;6.50;1.00
12452;DHT22;6291;48.924;12.204;2023-04-19T04:12:26;6.50;1.00
12452;DHT22;6291;48.924;12.204;2023-04-19T04:17:31;6.50;99.90
12452;DHT22;6291;48.924;12.204;2023-04-19T04:22:40;6.40;99.90
12452;DHT22;6291;48.924;12.204;2023-04-19T04:27:49;6.40;99.90
12452;DHT22;6291;48.924;12.204;2023-04-19T04:32:55;7.50;1.00
12452;DHT22;6291;48.924;12.204;2023-04-19T04:38:01;6.30;1.00
12452;DHT22;6291;48.924;12.204;2023-04-19T04:43:21;6.30;1.00
12452;DHT22;6291;48.924;12.204;2023-04-19T04:48:25;6.30;1.00
12452;DHT22;6291;48.924;12.204;2023-04-19T04:53:29;6.20;1.00
12452;DHT22;6291;48.924;12.204;2023-04-19T04:58:35;6.20;74.50
12452;DHT22;6291;48.924;12.204;2023-04-19T05:03:42;6.30;99.90
12452;DHT22;6291;48.924;12.204;2023-04-19T05:08:51;6.30;99.90
12452;DHT22;6291;48.924;12.204;2023-04-19T05:14:04;6.30;99.90
12452;DHT22;6291;48.924;12.204;2023-04-19T05:19:08;6.30;99.90
12452;DHT22;6291;48.924;12.204;2023-04-19T05:24:18;6.40;99.90
12452;DHT22;6291;48.924;12.204;2023-04-19T05:29:24;6.50;99.90
12452;DHT22;6291;48.924;12.204;2023-04-19T05:34:29;6.60;99.90
12452;DHT22;6291;48.924;12.204;2023-04-19T05:39:34;6.60;99.90
12452;DHT22;6291;48.924;12.204;2023-04-19T05:44:39;6.70;99.90
12452;DHT22;6291;48.924;12.204;2023-04-19T05:49:42;6.90;99.90
12452;DHT22;6291;48.924;12.204;2023-04-19T05:55:03;7.10;99.90
12452;DHT22;6291;48.924;12.204;2023-04-19T06:00:11;7.30;99.90
12452;DHT22;6291;48.924;12.204;2023-04-19T06:05:14;7.40;99.90
12452;DHT22;6291;48.924;12.204;2023-04-19T06:10:18;7.70;99.90
12452;DHT22;6291;48.924;12.204;2023-04-19T06:15:23;8.00;99.90
12452;DHT22;6291;48.924;12.204;2023-04-19T06:20:27;8.30;1.00
12452;DHT22;6291;48.924;12.204;2023-04-19T06:25:30;8.50;1.00
12452;DHT22;6291;48.924;12.204;2023-04-19T06:30:35;10.40;99.90
12452;DHT22;6291;48.924;12.204;2023-04-19T06:35:38;9.00;99.90
12452;DHT22;6291;48.924;12.204;2023-04-19T06:40:42;9.20;99.90
12452;DHT22;6291;48.924;12.204;2023-04-19T06:45:46;9.30;99.90
12452;DHT22;6291;48.924;12.204;2023-04-19T06:50:50;9.40;99.90
12452;DHT22;6291;48.924;12.204;2023-04-19T06:55:57;9.50;99.90
12452;DHT22;6291;48.924;12.204;2023-04-19T07:01:04;9.50;99.90
12452;DHT22;6291;48.924;12.204;2023-04-19T07:06:07;9.70;99.90
12452;DHT22;6291;48.924;12.204;2023-04-19T07:11:10;9.70;99.90
12452;DHT22;6291;48.924;12.204;2023-04-19T07:16:15;9.50;1.00
12452;DHT22;6291;48.924;12.204;2023-04-19T07:21:18;9.50;99.90
12452;DHT22;6291;48.924;12.204;2023-04-19T07:26:21;9.60;99.90
12452;DHT22;6291;48.924;12.204;2023-04-19T07:31:27;9.90;1.00
12452;DHT22;6291;48.924;12.204;2023-04-19T07:36:30;9.70;95.50
12452;DHT22;6291;48.924;12.204;2023-04-19T07:41:35;9.60;96.80
12452;DHT22;6291;48.924;12.204;2023-04-19T07:46:41;9.40;1.00
12452;DHT22;6291;48.924;12.204;2023-04-19T07:51:45;9.60;1.00
12452;DHT22;6291;48.924;12.204;2023-04-19T07:56:48;8.00;1.00
12452;DHT22;6291;48.924;12.204;2023-04-19T08:01:53;9.70;1.00
12452;DHT22;6291;48.924;12.204;2023-04-19T08:06:56;9.80;1.00
12452;DHT22;6291;48.924;12.204;2023-04-19T08:12:00;9.80;1.00
12452;DHT22;6291;48.924;12.204;2023-04-19T08:17:05;12.80;99.90
12452;DHT22;6291;48.924;12.204;2023-04-19T08:22:26;9.80;1.00
12452;DHT22;6291;48.924;12.204;2023-04-19T08:27:30;9.50;1.00
12452;DHT22;6291;48.924;12.204;2023-04-19T08:32:34;9.80;1.00
12452;DHT22;6291;48.924;12.204;2023-04-19T08:37:38;9.80;1.00
12452;DHT22;6291;48.924;12.204;2023-04-19T08:42:41;9.90;99.90
12452;DHT22;6291;48.924;12.204;2023-04-19T08:47:46;9.90;99.90
12452;DHT22;6291;48.924;12.204;2023-04-19T08:53:02;9.80;1.00
12452;DHT22;6291;48.924;12.204;2023-04-19T08:58:26;9.40;1.00
12452;DHT22;6291;48.924;12.204;2023-04-19T09:03:52;9.40;99.90
12452;DHT22;6291;48.924;12.204;2023-04-19T09:09:13;9.60;1.00
12452;DHT22;6291;48.924;12.204;2023-04-19T09:14:43;10.10;1.00
12452;DHT22;6291;48.924;12.204;2023-04-19T09:20:04;10.40;99.90
12452;DHT22;6291;48.924;12.204;2023-04-19T09:25:08;10.20;99.90
12452;DHT22;6291;48.924;12.204;2023-04-19T09:30:14;10.10;1.00
12452;DHT22;6291;48.924;12.204;2023-04-19T09:35:38;10.10;12.30
12452;DHT22;6291;48.924;12.204;2023-04-19T09:40:42;10.10;99.90
12452;DHT22;6291;48.924;12.204;2023-04-19T09:45:48;10.10;99.90
12452;DHT22;6291;48.924;12.204;2023-04-19T09:50:54;10.40;61.70
12452;DHT22;6291;48.924;12.204;2023-04-19T09:56:06;10.20;99.90
12452;DHT22;6291;48.924;12.204;2023-04-19T10:01:14;10.20;99.90
12452;DHT22;6291;48.924;12.204;2023-04-19T10:06:19;12.80;99.90
12452;DHT22;6291;48.924;12.204;2023-04-19T10:11:31;10.00;99.90
12452;DHT22;6291;48.924;12.204;2023-04-19T10:16:38;10.10;99.90
12452;DHT22;6291;48.924;12.204;2023-04-19T10:21:43;9.90;99.90
12452;DHT22;6291;48.924;12.204;2023-04-19T10:27:07;9.90;99.90
12452;DHT22;6291;48.924;12.204;2023-04-19T10:32:12;9.70;99.90
12452;DHT22;6291;48.924;12.204;2023-04-19T10:37:21;9.60;1.00
12452;DHT22;6291;48.924;12.204;2023-04-19T10:48:30;9.00;99.90
12452;DHT22;6291;48.924;12.204;2023-04-19T10:53:50;9.00;21.90
12452;DHT22;6291;48.924;12.204;2023-04-19T10:59:13;10.40;20.80
12452;DHT22;6291;48.924;12.204;2023-04-19T11:10:27;8.50;99.90
12452;DHT22;6291;48.924;12.204;2023-04-19T11:15:31;8.40;99.90
12452;DHT22;6291;48.924;12.204;2023-04-19T11:20:34;8.50;1.00
12452;DHT22;6291;48.924;12.204;2023-04-19T11:25:38;8.50;1.00
12452;DHT22;6291;48.924;12.204;2023-04-19T11:30:42;8.40;99.90
12452;DHT22;6291;48.924;12.204;2023-04-19T11:35:46;8.30;1.00
12452;DHT22;6291;48.924;12.204;2023-04-19T11:40:58;8.30;1.00
12452;DHT22;6291;48.924;12.204;2023-04-19T11:46:04;8.40;1.00
12452;DHT22;6291;48.924;12.204;2023-04-19T11:51:08;8.30;99.90
12452;DHT22;6291;48.924;12.204;2023-04-19T11:56:13;8.20;99.90
12452;DHT22;6291;48.924;12.204;2023-04-19T12:01:18;8.20;1.00
12452;DHT22;6291;48.924;12.204;2023-04-19T12:06:23;8.20;1.00
12452;DHT22;6291;48.924;12.204;2023-04-19T12:11:42;8.40;1.00
12452;DHT22;6291;48.924;12.204;2023-04-19T12:22:11;8.30;1.00
12452;DHT22;6291;48.924;12.204;2023-04-19T12:27:17;8.50;99.90
12452;DHT22;6291;48.924;12.204;2023-04-19T12:32:21;8.60;1.00
12452;DHT22;6291;48.924;12.204;2023-04-19T12:37:24;8.80;1.00
12452;DHT22;6291;48.924;12.204;2023-04-19T12:42:29;8.90;1.00
12452;DHT22;6291;48.924;12.204;2023-04-19T12:47:33;9.10;1.00
12452;DHT22;6291;48.924;12.204;2023-04-19T12:52:36;9.20;1.00
12452;DHT22;6291;48.924;12.204;2023-04-19T12:57:41;9.20;1.00
12452;DHT22;6291;48.924;12.204;2023-04-19T13:02:44;10.30;1.00
12452;DHT22;6291;48.924;12.204;2023-04-19T13:07:49;9.30;1.00
12452;DHT22;6291;48.924;12.204;2023-04-19T13:12:54;9.40;1.00
12452;DHT22;6291;48.924;12.204;2023-04-19T13:17:58;8.70;1.00
12452;DHT22;6291;48.924;12.204;2023-04-19T13:23:01;8.50;1.00
12452;DHT22;6291;48.924;12.204;2023-04-19T13:28:06;8.40;1.00
12452;DHT22;6291;48.924;12.204;2023-04-19T13:33:09;8.30;1.00
12452;DHT22;6291;48.924;12.204;2023-04-19T13:38:12;8.40;1.00
12452;DHT22;6291;48.924;12.204;2023-04-19T13:43:17;8.40;1.00
12452;DHT22;6291;48.924;12.204;2023-04-19T13:48:20;8.60;1.00
12452;DHT22;6291;48.924;12.204;2023-04-19T13:53:25;8.50;1.00
12452;DHT22;6291;48.924;12.204;2023-04-19T13:58:31;8.80;1.00
12452;DHT22;6291;48.924;12.204;2023-04-19T14:03:34;8.80;1.00
12452;DHT22;6291;48.924;12.204;2023-04-19T14:08:38;8.60;1.00
12452;DHT22;6291;48.924;12.204;2023-04-19T14:13:42;8.80;1.00
12452;DHT22;6291;48.924;12.204;2023-04-19T14:18:46;8.30;1.00
12452;DHT22;6291;48.924;12.204;2023-04-19T14:23:49;8.20;1.00
12452;DHT22;6291;48.924;12.204;2023-04-19T14:28:54;8.70;1.00
12452;DHT22;6291;48.924;12.204;2023-04-19T14:33:57;8.70;1.00
12452;DHT22;6291;48.924;12.204;2023-04-19T14:39:01;8.60;1.00
12452;DHT22;6291;48.924;12.204;2023-04-19T14:44:06;8.60;1.00
12452;DHT22;6291;48.924;12.204;2023-04-19T14:49:09;9.00;1.00
12452;DHT22;6291;48.924;12.204;2023-04-19T14:54:12;9.90;99.90
12452;DHT22;6291;48.924;12.204;2023-04-19T14:59:17;10.40;1.00
12452;DHT22;6291;48.924;12.204;2023-04-19T15:04:20;10.70;99.90
12452;DHT22;6291;48.924;12.204;2023-04-19T15:09:24;10.60;99.90
12452;DHT22;6291;48.924;12.204;2023-04-19T15:14:29;13.60;99.90
12452;DHT22;6291;48.924;12.204;2023-04-19T15:19:32;16.40;99.90
12452;DHT22;6291;48.924;12.204;2023-04-19T15:24:35;19.60;99.90
12452;DHT22;6291;48.924;12.204;2023-04-19T15:29:40;21.10;99.90
12452;DHT22;6291;48.924;12.204;2023-04-19T15:34:43;16.60;99.90
12452;DHT22;6291;48.924;12.204;2023-04-19T15:39:46;19.90;99.90
12452;DHT22;6291;48.924;12.204;2023-04-19T15:44:52;17.60;99.90
12452;DHT22;6291;48.924;12.204;2023-04-19T15:49:55;16.90;99.90
12452;DHT22;6291;48.924;12.204;2023-04-19T15:55:00;18.80;99.90
12452;DHT22;6291;48.924;12.204;2023-04-19T16:00:07;16.40;99.90
12452;DHT22;6291;48.924;12.204;2023-04-19T16:05:14;14.20;99.90
12452;DHT22;6291;48.924;12.204;2023-04-19T16:10:18;12.70;99.90
12452;DHT22;6291;48.924;12.204;2023-04-19T16:15:23;12.40;99.90
12452;DHT22;6291;48.924;12.204;2023-04-19T16:20:27;12.10;99.90
12452;DHT22;6291;48.924;12.204;2023-04-19T16:25:31;11.70;99.90
12452;DHT22;6291;48.924;12.204;2023-04-19T16:30:37;11.50;99.90
12452;DHT22;6291;48.924;12.204;2023-04-19T16:35:41;13.10;99.90
12452;DHT22;6291;48.924;12.204;2023-04-19T16:40:46;12.30;99.90
12452;DHT22;6291;48.924;12.204;2023-04-19T16:45:52;11.60;99.90
12452;DHT22;6291;48.924;12.204;2023-04-19T16:50:55;11.00;99.90
12452;DHT22;6291;48.924;12.204;2023-04-19T16:55:59;10.60;99.90
12452;DHT22;6291;48.924;12.204;2023-04-19T17:01:06;10.40;99.90
12452;DHT22;6291;48.924;12.204;2023-04-19T17:06:12;10.30;99.90
12452;DHT22;6291;48.924;12.204;2023-04-19T17:11:16;10.20;99.90
12452;DHT22;6291;48.924;12.204;2023-04-19T17:16:20;10.00;99.90
12452;DHT22;6291;48.924;12.204;2023-04-19T17:21:24;9.90;99.90
12452;DHT22;6291;48.924;12.204;2023-04-19T17:26:28;9.80;99.90
12452;DHT22;6291;48.924;12.204;2023-04-19T17:31:33;9.50;99.90
12452;DHT22;6291;48.924;12.204;2023-04-19T17:36:36;9.40;99.90
12452;DHT22;6291;48.924;12.204;2023-04-19T17:41:40;9.20;99.90
12452;DHT22;6291;48.924;12.204;2023-04-19T17:46:46;9.00;99.90
12452;DHT22;6291;48.924;12.204;2023-04-19T17:51:49;8.80;99.90
12452;DHT22;6291;48.924;12.204;2023-04-19T17:56:54;8.80;99.90
12452;DHT22;6291;48.924;12.204;2023-04-19T18:02:02;8.80;99.90
12452;DHT22;6291;48.924;12.204;2023-04-19T18:07:05;8.30;99.90
12452;DHT22;6291;48.924;12.204;2023-04-19T18:12:08;8.10;99.90
12452;DHT22;6291;48.924;12.204;2023-04-19T18:17:13;7.90;99.90
12452;DHT22;6291;48.924;12.204;2023-04-19T18:22:16;7.80;99.90
12452;DHT22;6291;48.924;12.204;2023-04-19T18:27:20;7.70;99.90
12452;DHT22;6291;48.924;12.204;2023-04-19T18:32:25;7.70;99.90
12452;DHT22;6291;48.924;12.204;2023-04-19T18:37:29;7.60;99.90
12452;DHT22;6291;48.924;12.204;2023-04-19T18:42:33;7.40;99.90
12452;DHT22;6291;48.924;12.204;2023-04-19T18:47:37;7.20;99.90
12452;DHT22;6291;48.924;12.204;2023-04-19T18:52:41;7.10;99.90
12452;DHT22;6291;48.924;12.204;2023-04-19T18:57:44;7.00;99.90
12452;DHT22;6291;48.924;12.204;2023-04-19T19:02:49;7.00;99.90
12452;DHT22;6291;48.924;12.204;2023-04-19T19:07:54;7.10;99.90
12452;DHT22;6291;48.924;12.204;2023-04-19T19:12:57;7.40;99.90
12452;DHT22;6291;48.924;12.204;2023-04-19T19:18:02;7.60;99.90
12452;DHT22;6291;48.924;12.204;2023-04-19T19:23:06;7.50;99.90
12452;DHT22;6291;48.924;12.204;2023-04-19T19:28:09;7.40;99.90
12452;DHT22;6291;48.924;12.204;2023-04-19T19:33:14;7.30;99.90
12452;DHT22;6291;48.924;12.204;2023-04-19T19:38:18;7.20;99.90
12452;DHT22;6291;48.924;12.204;2023-04-19T19:43:22;7.20;99.90
12452;DHT22;6291;48.924;12.204;2023-04-19T19:48:26;7.20;99.90
12452;DHT22;6291;48.924;12.204;2023-04-19T19:53:31;7.00;99.90
12452;DHT22;6291;48.924;12.204;2023-04-19T19:58:34;6.80;99.90
12452;DHT22;6291;48.924;12.204;2023-04-19T20:03:54;6.60;99.90
12452;DHT22;6291;48.924;12.204;2023-04-19T20:08:58;6.30;99.90
12452;DHT22;6291;48.924;12.204;2023-04-19T20:14:02;6.20;99.90
12452;DHT22;6291;48.924;12.204;2023-04-19T20:19:07;6.00;99.90
12452;DHT22;6291;48.924;12.204;2023-04-19T20:24:12;5.90;99.90
12452;DHT22;6291;48.924;12.204;2023-04-19T20:29:16;5.70;99.90
12452;DHT22;6291;48.924;12.204;2023-04-19T20:34:21;5.70;99.90
12452;DHT22;6291;48.924;12.204;2023-04-19T20:39:24;5.60;99.90
12452;DHT22;6291;48.924;12.204;2023-04-19T20:44:27;5.50;99.90
12452;DHT22;6291;48.924;12.204;2023-04-19T20:49:32;5.30;99.90
12452;DHT22;6291;48.924;12.204;2023-04-19T20:54:35;5.20;99.90
12452;DHT22;6291;48.924;12.204;2023-04-19T20:59:39;5.10;99.90
12452;DHT22;6291;48.924;12.204;2023-04-19T21:04:44;5.00;99.90
12452;DHT22;6291;48.924;12.204;2023-04-19T21:09:47;4.90;99.90
12452;DHT22;6291;48.924;12.204;2023-04-19T21:14:51;4.70;99.90
12452;DHT22;6291;48.924;12.204;2023-04-19T21:19:55;4.60;99.90
12452;DHT22;6291;48.924;12.204;2023-04-19T21:24:59;4.70;99.90
12452;DHT22;6291;48.924;12.204;2023-04-19T21:30:02;4.70;99.90
12452;DHT22;6291;48.924;12.204;2023-04-19T21:35:07;4.70;99.90
12452;DHT22;6291;48.924;12.204;2023-04-19T21:40:11;4.60;99.90
12452;DHT22;6291;48.924;12.204;2023-04-19T21:45:15;4.60;99.90
12452;DHT22;6291;48.924;12.204;2023-04-19T21:50:20;4.50;99.90
12452;DHT22;6291;48.924;12.204;2023-04-19T21:55:23;4.40;99.90
12452;DHT22;6291;48.924;12.204;2023-04-19T22:00:26;4.40;99.90
12452;DHT22;6291;48.924;12.204;2023-04-19T22:05:31;4.20;99.90
12452;DHT22;6291;48.924;12.204;2023-04-19T22:10:34;4.10;99.90
12452;DHT22;6291;48.924;12.204;2023-04-19T22:15:39;3.90;1.00
12452;DHT22;6291;48.924;12.204;2023-04-19T22:20:45;5.40;1.00
12452;DHT22;6291;48.924;12.204;2023-04-19T22:25:50;3.80;1.00
12452;DHT22;6291;48.924;12.204;2023-04-19T22:30:54;3.90;1.00
12452;DHT22;6291;48.924;12.204;2023-04-19T22:35:59;3.60;1.00
12452;DHT22;6291;48.924;12.204;2023-04-19T22:41:03;3.40;1.00
12452;DHT22;6291;48.924;12.204;2023-04-19T22:46:06;3.30;1.00
12452;DHT22;6291;48.924;12.204;2023-04-19T22:51:11;1.10;1.00
12452;DHT22;6291;48.924;12.204;2023-04-19T22:56:14;3.30;1.00
12452;DHT22;6291;48.924;12.204;2023-04-19T23:01:18;3.40;1.00
12452;DHT22;6291;48.924;12.204;2023-04-19T23:06:23;3.40;1.00
12452;DHT22;6291;48.924;12.204;2023-04-19T23:11:26;3.40;1.00
12452;DHT22;6291;48.924;12.204;2023-04-19T23:16:30;3.30;1.00
12452;DHT22;6291;48.924;12.204;2023-04-19T23:21:35;3.20;99.90
12452;DHT22;6291;48.924;12.204;2023-04-19T23:26:38;3.40;99.90
12452;DHT22;6291;48.924;12.204;2023-04-19T23:31:42;3.00;99.90
12452;DHT22;6291;48.924;12.204;2023-04-19T23:36:46;2.90;99.90
12452;DHT22;6291;48.924;12.204;2023-04-19T23:41:50;2.90;99.90
12452;DHT22;6291;48.924;12.204;2023-04-19T23:46:53;3.10;1.00
12452;DHT22;6291;48.924;12.204;2023-04-19T23:51:57;3.20;99.90
12452;DHT22;6291;48.924;12.204;2023-04-19T23:57:00;3.10;99.90
